createdAt,value
2022-08-25T00:00:20.288Z,7.25
2022-08-25T00:02:55.737Z,6.55
2022-08-25T00:05:32.127Z,8.00
2022-08-25T00:08:01.149Z,7.20
2022-08-25T00:10:29.538Z,7.60
2022-08-25T00:12:57.512Z,6.97
2022-08-25T00:15:25.966Z,8.65
2022-08-25T00:17:55.734Z,6.22
2022-08-25T00:20:23.724Z,7.95
2022-08-25T00:22:51.880Z,6.90
2022-08-25T00:25:20.493Z,7.85
2022-08-25T00:27:48.870Z,6.22
2022-08-25T00:30:17.614Z,6.47
2022-08-25T00:32:55.149Z,7.28
2022-08-25T00:35:27.898Z,6.18
2022-08-25T00:37:56.154Z,8.50
2022-08-25T00:40:25.736Z,6.60
2022-08-25T00:42:54.575Z,9.35
2022-08-25T00:45:23.763Z,7.70
2022-08-25T00:47:51.769Z,6.70
2022-08-25T00:50:20.558Z,6.63
2022-08-25T00:52:53.944Z,7.80
2022-08-25T00:55:25.725Z,7.97
2022-08-25T00:57:57.975Z,8.35
2022-08-25T01:00:31.190Z,7.57
2022-08-25T01:02:59.706Z,10.75
2022-08-25T01:05:29.156Z,7.53
2022-08-25T01:08:01.211Z,9.55
2022-08-25T01:10:32.230Z,9.57
2022-08-25T01:13:06.269Z,8.27
2022-08-25T01:15:38.719Z,6.72
2022-08-25T01:18:06.994Z,7.30
2022-08-25T01:20:35.549Z,8.18
2022-08-25T01:23:05.247Z,6.97
2022-08-25T01:25:52.537Z,7.13
2022-08-25T01:28:21.291Z,10.40
2022-08-25T01:30:50.482Z,7.88
2022-08-25T01:33:18.493Z,6.15
2022-08-25T01:35:47.535Z,8.65
2022-08-25T01:38:17.187Z,9.45
2022-08-25T01:40:45.549Z,6.97
2022-08-25T01:43:22.141Z,6.43
2022-08-25T01:45:50.688Z,7.20
2022-08-25T01:48:20.456Z,8.50
2022-08-25T01:50:48.451Z,8.65
2022-08-25T01:53:23.934Z,6.70
2022-08-25T01:56:01.679Z,8.45
2022-08-25T01:58:34.102Z,7.38
2022-08-25T02:01:06.897Z,7.50
2022-08-25T02:03:38.089Z,7.15
2022-08-25T02:06:10.663Z,7.00
2022-08-25T02:08:40.273Z,9.23
2022-08-25T02:11:12.893Z,7.30
2022-08-25T02:13:41.705Z,7.90
2022-08-25T02:16:11.591Z,7.85
2022-08-25T02:18:39.833Z,6.50
2022-08-25T02:21:07.802Z,6.50
2022-08-25T02:23:36.045Z,6.85
2022-08-25T02:26:06.284Z,7.07
2022-08-25T02:28:34.391Z,8.52
2022-08-25T02:31:02.609Z,7.88
2022-08-25T02:33:30.675Z,6.43
2022-08-25T02:35:59.650Z,7.03
2022-08-25T02:38:28.401Z,9.88
2022-08-25T02:40:56.437Z,8.13
2022-08-25T02:43:26.455Z,7.07
2022-08-25T02:45:55.406Z,8.60
2022-08-25T02:48:24.392Z,8.25
2022-08-25T02:50:53.466Z,7.35
2022-08-25T02:53:21.909Z,8.32
2022-08-25T02:55:49.865Z,7.47
2022-08-25T02:58:17.873Z,10.85
2022-08-25T03:00:47.253Z,7.38
2022-08-25T03:03:16.344Z,6.93
2022-08-25T03:05:44.321Z,6.80
2022-08-25T03:08:12.382Z,8.15
2022-08-25T03:10:40.711Z,6.93
2022-08-25T03:13:08.723Z,9.73
2022-08-25T03:15:38.342Z,8.95
2022-08-25T03:18:08.682Z,6.50
2022-08-25T03:20:36.770Z,8.20
2022-08-25T03:23:06.052Z,7.18
2022-08-25T03:25:48.463Z,8.48
2022-08-25T03:28:16.489Z,7.80
2022-08-25T03:30:44.472Z,7.85
2022-08-25T03:33:15.052Z,9.35
2022-08-25T03:35:43.087Z,7.00
2022-08-25T03:38:11.464Z,6.57
2022-08-25T03:40:39.524Z,6.82
2022-08-25T03:43:07.481Z,9.32
2022-08-25T03:45:36.064Z,7.00
2022-08-25T03:48:04.453Z,10.57
2022-08-25T03:50:34.138Z,12.02
2022-08-25T03:53:02.282Z,10.35
2022-08-25T03:55:30.687Z,7.97
2022-08-25T03:58:00.613Z,10.48
2022-08-25T04:00:28.599Z,7.95
2022-08-25T04:02:56.540Z,8.60
2022-08-25T04:05:24.820Z,8.43
2022-08-25T04:07:56.461Z,8.02
2022-08-25T04:10:24.527Z,10.25
2022-08-25T04:12:52.506Z,9.23
2022-08-25T04:15:20.660Z,8.10
2022-08-25T04:17:48.628Z,11.77
2022-08-25T04:20:20.353Z,7.93
2022-08-25T04:22:48.422Z,7.78
2022-08-25T04:25:17.908Z,8.77
2022-08-25T04:27:45.851Z,7.90
2022-08-25T04:30:15.103Z,7.00
2022-08-25T04:32:43.031Z,10.45
2022-08-25T04:35:11.450Z,9.30
2022-08-25T04:37:39.389Z,7.75
2022-08-25T04:40:09.408Z,8.05
2022-08-25T04:42:39.288Z,11.05
2022-08-25T04:45:08.353Z,9.38
2022-08-25T04:47:39.217Z,14.73
2022-08-25T04:50:08.401Z,9.30
2022-08-25T04:52:36.428Z,11.45
2022-08-25T04:55:05.048Z,9.63
2022-08-25T04:57:32.957Z,9.98
2022-08-25T05:00:02.460Z,8.55
2022-08-25T05:02:31.258Z,9.77
2022-08-25T05:04:59.215Z,8.88
2022-08-25T05:07:27.506Z,14.15
2022-08-25T05:09:55.757Z,9.90
2022-08-25T05:12:23.711Z,10.70
2022-08-25T05:14:53.329Z,11.52
2022-08-25T05:17:22.669Z,9.55
2022-08-25T05:19:50.636Z,9.32
2022-08-25T05:22:18.644Z,9.50
2022-08-25T05:24:47.150Z,9.80
2022-08-25T05:27:15.164Z,10.75
2022-08-25T05:29:44.113Z,10.30
2022-08-25T05:32:12.269Z,12.60
2022-08-25T05:34:41.618Z,10.82
2022-08-25T05:37:12.165Z,10.73
2022-08-25T05:39:40.334Z,10.05
2022-08-25T05:42:08.856Z,10.07
2022-08-25T05:44:36.795Z,10.95
2022-08-25T05:47:05.392Z,11.75
2022-08-25T05:49:33.346Z,10.57
2022-08-25T05:52:02.899Z,13.80
2022-08-25T05:54:31.605Z,12.00
2022-08-25T05:57:00.114Z,11.52
2022-08-25T05:59:28.207Z,13.70
2022-08-25T06:02:13.808Z,10.68
2022-08-25T06:04:41.767Z,11.30
2022-08-25T06:07:12.758Z,18.02
2022-08-25T06:09:45.895Z,12.63
2022-08-25T06:12:14.209Z,13.70
2022-08-25T06:14:42.647Z,13.13
2022-08-25T06:17:10.836Z,11.93
2022-08-25T06:19:41.252Z,13.07
2022-08-25T06:22:10.867Z,14.32
2022-08-25T06:24:38.820Z,14.25
2022-08-25T06:27:06.940Z,14.73
2022-08-25T06:29:34.907Z,11.95
2022-08-25T06:32:03.056Z,14.70
2022-08-25T06:34:31.012Z,12.85
2022-08-25T06:36:59.046Z,14.85
2022-08-25T06:39:28.895Z,15.05
2022-08-25T06:41:58.042Z,17.70
2022-08-25T06:44:28.128Z,13.73
2022-08-25T06:46:56.316Z,12.95
2022-08-25T06:49:27.738Z,14.50
2022-08-25T06:51:55.890Z,14.05
2022-08-25T06:54:23.840Z,14.02
2022-08-25T06:56:53.149Z,14.18
2022-08-25T06:59:23.190Z,18.83
2022-08-25T07:01:51.219Z,12.73
2022-08-25T07:04:20.894Z,13.57
2022-08-25T07:06:48.997Z,11.82
2022-08-25T07:09:17.027Z,14.25
2022-08-25T07:11:46.346Z,12.32
2022-08-25T07:14:17.855Z,13.52
2022-08-25T07:16:49.674Z,12.90
2022-08-25T07:19:20.591Z,11.00
2022-08-25T07:21:51.528Z,11.60
2022-08-25T07:24:19.736Z,15.63
2022-08-25T07:26:47.770Z,12.05
2022-08-25T07:29:19.533Z,10.75
2022-08-25T07:31:48.185Z,11.65
2022-08-25T07:34:34.702Z,10.60
2022-08-25T07:37:05.252Z,11.52
2022-08-25T07:39:35.566Z,11.27
2022-08-25T07:42:04.847Z,8.75
2022-08-25T07:44:41.281Z,10.80
2022-08-25T07:47:11.503Z,10.38
2022-08-25T07:49:39.938Z,13.23
2022-08-25T07:52:09.048Z,14.20
2022-08-25T07:54:38.449Z,9.05
2022-08-25T07:57:08.707Z,10.10
2022-08-25T07:59:40.430Z,10.35
2022-08-25T08:02:18.000Z,9.65
2022-08-25T08:04:48.700Z,8.38
2022-08-25T08:07:18.601Z,10.93
2022-08-25T08:09:48.720Z,14.13
2022-08-25T08:12:21.239Z,9.55
2022-08-25T08:14:51.369Z,10.13
2022-08-25T08:17:21.471Z,14.50
2022-08-25T08:19:50.328Z,11.10
2022-08-25T08:22:18.616Z,10.55
2022-08-25T08:24:56.052Z,10.10
2022-08-25T08:27:25.420Z,8.52
2022-08-25T08:29:54.540Z,11.85
2022-08-25T08:32:32.397Z,9.85
2022-08-25T08:35:12.592Z,9.10
2022-08-25T08:37:42.440Z,10.07
2022-08-25T08:40:11.780Z,7.57
2022-08-25T08:42:55.044Z,9.57
2022-08-25T08:45:35.748Z,10.60
2022-08-25T08:48:27.219Z,11.10
2022-08-25T08:51:02.824Z,10.77
2022-08-25T08:53:43.267Z,9.98
2022-08-25T08:56:13.419Z,9.20
2022-08-25T08:58:44.733Z,7.53
2022-08-25T09:01:15.709Z,9.43
2022-08-25T09:03:48.171Z,10.13
2022-08-25T09:06:27.086Z,8.75
2022-08-25T09:08:56.747Z,8.70
2022-08-25T09:11:32.003Z,10.93
2022-08-25T09:14:10.376Z,8.68
2022-08-25T09:16:57.497Z,9.25
2022-08-25T09:19:33.779Z,7.57
2022-08-25T09:22:04.736Z,7.63
2022-08-25T09:24:58.141Z,9.18
2022-08-25T09:27:31.206Z,9.32
2022-08-25T09:30:01.741Z,12.77
2022-08-25T09:32:35.994Z,9.45
2022-08-25T09:35:08.079Z,8.52
2022-08-25T09:37:36.479Z,8.10
2022-08-25T09:40:05.347Z,8.73
2022-08-25T09:42:50.916Z,8.40
2022-08-25T09:45:34.579Z,8.43
2022-08-25T09:48:02.960Z,8.75
2022-08-25T09:50:35.026Z,7.65
2022-08-25T09:53:17.152Z,7.72
2022-08-25T09:55:48.605Z,11.55
2022-08-25T09:58:21.709Z,7.57
2022-08-25T10:01:03.031Z,8.93
2022-08-25T10:03:34.334Z,8.93
2022-08-25T10:06:12.951Z,7.03
2022-08-25T10:08:53.304Z,8.20
2022-08-25T10:11:33.204Z,9.82
2022-08-25T10:14:03.468Z,7.55
2022-08-25T10:16:36.458Z,7.43
2022-08-25T10:19:08.817Z,7.63
2022-08-25T10:21:39.701Z,8.98
2022-08-25T10:24:08.659Z,8.32
2022-08-25T10:26:48.925Z,10.77
2022-08-25T10:29:22.633Z,9.18
2022-08-25T10:31:57.921Z,8.05
2022-08-25T10:34:39.072Z,7.43
2022-08-25T10:37:24.368Z,9.73
2022-08-25T10:40:01.344Z,9.93
2022-08-25T10:42:37.083Z,10.60
2022-08-25T10:45:38.304Z,8.38
2022-08-25T10:48:44.789Z,8.80
2022-08-25T10:51:32.485Z,7.88
2022-08-25T10:54:13.658Z,9.90
2022-08-25T10:56:44.741Z,8.38
2022-08-25T10:59:43.824Z,9.95
2022-08-25T11:02:34.775Z,7.97
2022-08-25T11:05:08.517Z,9.50
2022-08-25T11:07:41.186Z,8.73
2022-08-25T11:10:14.412Z,7.28
2022-08-25T11:12:45.277Z,8.60
2022-08-25T11:15:20.665Z,10.00
2022-08-25T11:17:54.447Z,9.40
2022-08-25T11:20:28.310Z,8.40
2022-08-25T11:23:07.926Z,8.38
2022-08-25T11:25:41.691Z,8.80
2022-08-25T11:28:14.641Z,7.70
2022-08-25T11:30:43.024Z,7.93
2022-08-25T11:33:14.655Z,8.75
2022-08-25T11:35:48.997Z,9.10
2022-08-25T11:38:33.132Z,7.60
2022-08-25T11:41:12.435Z,8.85
2022-08-25T11:43:54.018Z,7.25
2022-08-25T11:46:36.301Z,8.40
2022-08-25T11:49:31.656Z,8.30
2022-08-25T11:52:03.043Z,7.15
2022-08-25T11:54:38.726Z,8.85
2022-08-25T11:57:22.281Z,8.48
2022-08-25T12:00:14.081Z,7.15
2022-08-25T12:02:44.643Z,8.07
2022-08-25T12:05:55.070Z,8.32
2022-08-25T12:08:57.567Z,8.13
2022-08-25T12:11:47.637Z,7.63
2022-08-25T12:14:37.455Z,9.82
2022-08-25T12:17:20.574Z,6.82
2022-08-25T12:19:52.687Z,8.13
2022-08-25T12:22:51.312Z,6.70
2022-08-25T12:25:44.313Z,8.75
2022-08-25T12:28:30.524Z,8.13
2022-08-25T12:31:16.983Z,6.65
2022-08-25T12:34:16.786Z,9.88
2022-08-25T12:36:58.977Z,6.95
2022-08-25T12:39:32.318Z,7.20
2022-08-25T12:42:04.845Z,7.28
2022-08-25T12:44:43.111Z,11.20
2022-08-25T12:47:31.894Z,8.88
2022-08-25T12:50:28.225Z,7.18
2022-08-25T12:53:04.903Z,8.23
2022-08-25T12:55:35.050Z,6.35
2022-08-25T12:58:05.771Z,9.13
2022-08-25T13:00:46.658Z,6.95
2022-08-25T13:06:40.756Z,7.65
2022-08-25T13:09:46.798Z,6.22
2022-08-25T13:12:18.894Z,8.88
2022-08-25T13:14:54.894Z,6.85
2022-08-25T13:17:27.886Z,11.07
2022-08-25T13:20:17.184Z,6.45
2022-08-25T13:22:47.751Z,8.43
2022-08-25T13:25:23.144Z,6.78
2022-08-25T13:27:58.116Z,6.85
2022-08-25T13:30:29.771Z,7.43
2022-08-25T13:32:58.321Z,5.53
2022-08-25T13:35:35.167Z,5.53
2022-08-25T13:38:17.343Z,6.00
2022-08-25T13:40:45.814Z,6.38
2022-08-25T13:43:16.343Z,6.70
2022-08-25T13:45:47.440Z,6.85
2022-08-25T13:48:32.004Z,6.75
2022-08-25T13:51:08.901Z,7.30
2022-08-25T13:53:39.542Z,9.93
2022-08-25T13:56:07.769Z,6.32
2022-08-25T13:58:45.705Z,7.90
2022-08-25T14:01:23.695Z,5.85
2022-08-25T14:04:29.474Z,7.30
2022-08-25T14:07:34.434Z,5.95
2022-08-25T14:10:05.912Z,8.07
2022-08-25T14:12:40.534Z,7.25
2022-08-25T14:15:13.646Z,6.82
2022-08-25T14:17:48.413Z,6.57
2022-08-25T14:20:21.782Z,5.82
2022-08-25T14:22:54.907Z,6.75
2022-08-25T14:25:22.964Z,6.38
2022-08-25T14:28:13.848Z,5.95
2022-08-25T14:30:46.199Z,8.00
2022-08-25T14:33:16.429Z,7.55
2022-08-25T14:35:48.037Z,6.78
2022-08-25T14:38:18.489Z,6.97
2022-08-25T14:40:46.967Z,6.47
2022-08-25T14:43:18.344Z,7.50
2022-08-25T14:45:52.406Z,7.20
2022-08-25T14:48:26.817Z,5.93
2022-08-25T14:50:56.325Z,7.10
2022-08-25T14:53:27.313Z,7.20
2022-08-25T14:55:59.210Z,6.38
2022-08-25T14:58:27.926Z,6.93
2022-08-25T15:01:03.386Z,6.43
2022-08-25T15:03:35.992Z,7.70
2022-08-25T15:06:05.996Z,6.63
2022-08-25T15:08:52.889Z,6.90
2022-08-25T15:11:20.956Z,7.13
2022-08-25T15:13:50.025Z,6.75
2022-08-25T15:16:25.312Z,7.05
2022-08-25T15:19:06.678Z,7.45
2022-08-25T15:21:35.747Z,7.15
2022-08-25T15:24:05.956Z,6.57
2022-08-25T15:26:39.944Z,6.80
2022-08-25T15:29:08.016Z,7.95
2022-08-25T15:31:38.713Z,6.18
2022-08-25T15:34:07.386Z,6.65
2022-08-25T15:36:40.786Z,8.43
2022-08-25T15:39:11.532Z,6.05
2022-08-25T15:41:39.671Z,6.53
2022-08-25T15:44:11.365Z,9.82
2022-08-25T15:46:42.203Z,7.65
2022-08-25T15:49:20.278Z,6.88
2022-08-25T15:51:48.817Z,5.85
2022-08-25T15:54:18.128Z,7.18
2022-08-25T15:56:46.162Z,6.65
2022-08-25T15:59:14.473Z,6.05
2022-08-25T16:01:43.680Z,6.13
2022-08-25T16:04:12.647Z,6.45
2022-08-25T16:06:40.623Z,6.50
2022-08-25T16:09:08.971Z,5.82
2022-08-25T16:11:38.934Z,6.50
2022-08-25T16:14:07.269Z,6.28
2022-08-25T16:16:35.437Z,8.07
2022-08-25T16:19:04.841Z,6.35
2022-08-25T16:21:36.988Z,5.47
2022-08-25T16:24:10.627Z,6.28
2022-08-25T16:26:48.253Z,5.55
2022-08-25T16:29:17.476Z,6.85
2022-08-25T16:31:45.641Z,6.15
2022-08-25T16:34:22.133Z,6.18
2022-08-25T16:36:52.803Z,5.70
2022-08-25T16:39:21.040Z,6.47
2022-08-25T16:41:51.385Z,6.38
2022-08-25T16:44:22.486Z,6.03
2022-08-25T16:46:54.334Z,7.90
2022-08-25T16:49:24.203Z,5.45
2022-08-25T16:51:57.048Z,6.57
2022-08-25T16:54:43.883Z,5.20
2022-08-25T16:57:13.503Z,6.15
2022-08-25T16:59:42.468Z,6.80
2022-08-25T17:02:12.134Z,6.40
2022-08-25T17:04:41.930Z,5.15
2022-08-25T17:07:10.455Z,7.82
2022-08-25T17:09:38.395Z,5.53
2022-08-25T17:12:06.894Z,5.10
2022-08-25T17:14:36.700Z,6.28
2022-08-25T17:17:07.011Z,8.27
2022-08-25T17:19:35.254Z,6.70
2022-08-25T17:22:03.359Z,8.70
2022-08-25T17:24:33.750Z,7.60
2022-08-25T17:27:02.656Z,6.22
2022-08-25T17:29:30.678Z,6.13
2022-08-25T17:32:00.135Z,5.10
2022-08-25T17:34:29.092Z,5.85
2022-08-25T17:36:58.071Z,5.47
2022-08-25T17:39:26.499Z,8.57
2022-08-25T17:41:54.687Z,9.77
2022-08-25T17:44:22.748Z,7.35
2022-08-25T17:46:50.853Z,8.80
2022-08-25T17:49:21.346Z,7.63
2022-08-25T17:51:51.080Z,6.13
2022-08-25T17:54:19.898Z,6.35
2022-08-25T17:56:48.825Z,5.80
2022-08-25T17:59:18.774Z,7.32
2022-08-25T18:01:47.997Z,6.00
2022-08-25T18:04:17.303Z,6.70
2022-08-25T18:06:48.238Z,8.57
2022-08-25T18:09:16.450Z,7.03
2022-08-25T18:11:45.615Z,6.88
2022-08-25T18:14:16.462Z,6.82
2022-08-25T18:16:44.545Z,6.97
2022-08-25T18:19:14.292Z,5.85
2022-08-25T18:21:43.627Z,7.25
2022-08-25T18:24:13.566Z,5.53
2022-08-25T18:26:42.072Z,7.43
2022-08-25T18:29:12.835Z,6.07
2022-08-25T18:31:42.221Z,6.65
2022-08-25T18:34:11.414Z,7.60
2022-08-25T18:36:39.828Z,7.13
2022-08-25T18:39:28.751Z,8.23
2022-08-25T18:42:02.775Z,8.38
2022-08-25T18:44:32.105Z,8.55
2022-08-25T18:47:00.314Z,10.43
2022-08-25T18:49:37.012Z,8.85
2022-08-25T18:52:06.658Z,9.30
2022-08-25T18:54:36.142Z,9.93
2022-08-25T18:57:08.199Z,8.50
2022-08-25T18:59:37.876Z,11.20
2022-08-25T19:02:06.969Z,8.60
2022-08-25T19:04:35.067Z,7.78
2022-08-25T19:07:03.246Z,8.65
2022-08-25T19:09:31.875Z,8.32
2022-08-25T19:12:00.161Z,7.00
2022-08-25T19:14:29.816Z,9.32
2022-08-25T19:16:59.092Z,7.85
2022-08-25T19:19:27.905Z,8.82
2022-08-25T19:21:55.945Z,8.57
2022-08-25T19:24:23.907Z,8.63
2022-08-25T19:26:54.694Z,8.05
2022-08-25T19:29:24.081Z,6.95
2022-08-25T19:31:53.683Z,9.52
2022-08-25T19:34:28.153Z,6.72
2022-08-25T19:37:00.063Z,8.52
2022-08-25T19:39:28.497Z,7.18
2022-08-25T19:41:59.037Z,9.30
2022-08-25T19:44:28.023Z,7.70
2022-08-25T19:46:57.729Z,11.63
2022-08-25T19:49:33.340Z,8.63
2022-08-25T19:52:03.357Z,14.05
2022-08-25T19:54:34.697Z,11.15
2022-08-25T19:57:05.095Z,12.95
2022-08-25T19:59:43.091Z,13.75
2022-08-25T20:02:15.956Z,14.20
2022-08-25T20:04:49.161Z,11.32
2022-08-25T20:07:19.618Z,14.30
2022-08-25T20:09:48.513Z,11.40
2022-08-25T20:12:17.500Z,10.52
2022-08-25T20:14:47.007Z,8.80
2022-08-25T20:17:24.551Z,8.35
2022-08-25T20:19:55.500Z,11.85
2022-08-25T20:22:26.229Z,9.98
2022-08-25T20:24:58.723Z,8.85
2022-08-25T20:27:34.940Z,9.50
2022-08-25T20:30:04.540Z,8.65
2022-08-25T20:32:35.621Z,8.48
2022-08-25T20:35:06.219Z,11.60
2022-08-25T20:37:37.270Z,9.52
2022-08-25T20:40:06.615Z,8.82
2022-08-25T20:42:35.733Z,8.95
2022-08-25T20:45:06.712Z,10.15
2022-08-25T20:47:36.159Z,10.27
2022-08-25T20:50:06.949Z,14.05
2022-08-25T20:52:36.297Z,10.95
2022-08-25T20:55:08.741Z,11.45
2022-08-25T20:57:36.906Z,9.82
2022-08-25T21:00:07.348Z,8.70
2022-08-25T21:02:36.800Z,8.90
2022-08-25T21:05:05.621Z,8.38
2022-08-25T21:07:35.860Z,14.20
2022-08-25T21:10:10.561Z,9.93
2022-08-25T21:12:42.367Z,13.20
2022-08-25T21:15:12.031Z,14.07
2022-08-25T21:17:41.537Z,11.48
2022-08-25T21:20:11.822Z,9.52
2022-08-25T21:22:39.889Z,13.93
2022-08-25T21:25:09.395Z,8.60
2022-08-25T21:27:37.706Z,9.95
2022-08-25T21:30:07.801Z,10.98
2022-08-25T21:32:36.397Z,9.55
2022-08-25T21:35:08.074Z,10.88
2022-08-25T21:37:36.156Z,10.23
2022-08-25T21:40:06.954Z,9.88
2022-08-25T21:42:36.655Z,10.35
2022-08-25T21:45:05.162Z,11.32
2022-08-25T21:47:42.253Z,9.52
2022-08-25T21:50:13.807Z,10.68
2022-08-25T21:52:43.167Z,8.82
2022-08-25T21:55:16.246Z,8.02
2022-08-25T21:57:44.504Z,9.60
2022-08-25T22:00:15.025Z,9.45
2022-08-25T22:02:45.844Z,10.85
2022-08-25T22:05:15.514Z,9.80
2022-08-25T22:07:48.663Z,10.88
2022-08-25T22:10:23.745Z,9.65
2022-08-25T22:12:52.820Z,10.35
2022-08-25T22:15:20.867Z,9.13
2022-08-25T22:17:49.219Z,10.05
2022-08-25T22:20:20.006Z,12.75
2022-08-25T22:22:48.175Z,10.45
2022-08-25T22:25:17.441Z,13.63
2022-08-25T22:27:45.464Z,8.32
2022-08-25T22:30:15.587Z,12.07
2022-08-25T22:32:45.594Z,8.52
2022-08-25T22:35:13.789Z,8.98
2022-08-25T22:37:46.933Z,9.55
2022-08-25T22:40:15.398Z,14.93
2022-08-25T22:42:48.079Z,11.15
2022-08-25T22:45:17.460Z,9.55
2022-08-25T22:47:45.740Z,9.02
2022-08-25T22:50:14.150Z,9.30
2022-08-25T22:52:46.903Z,11.02
2022-08-25T22:55:18.072Z,9.30
2022-08-25T22:57:50.236Z,9.32
2022-08-25T23:00:23.492Z,10.38
2022-08-25T23:02:53.297Z,8.20
2022-08-25T23:05:21.570Z,10.57
2022-08-25T23:07:52.228Z,9.25
2022-08-25T23:10:22.684Z,9.40
2022-08-25T23:12:51.541Z,10.85
2022-08-25T23:15:27.289Z,10.23
2022-08-25T23:17:55.271Z,11.02
2022-08-25T23:20:44.798Z,8.98
2022-08-25T23:23:14.828Z,8.98
2022-08-25T23:25:43.790Z,11.68
2022-08-25T23:28:11.780Z,11.65
2022-08-25T23:30:39.914Z,9.73
2022-08-25T23:33:11.950Z,10.10
2022-08-25T23:35:39.904Z,9.65
2022-08-25T23:38:07.900Z,9.38
2022-08-25T23:40:41.924Z,7.93
2022-08-25T23:43:10.416Z,11.48
2022-08-25T23:45:38.672Z,8.63
2022-08-25T23:48:08.939Z,8.95
2022-08-25T23:50:40.885Z,9.70
2022-08-25T23:53:09.871Z,10.98
2022-08-25T23:55:39.270Z,9.30
2022-08-25T23:58:21.753Z,8.35
